createdAt,value
2017-08-07T00:01:41.841Z,94.50
2017-08-07T00:04:09.404Z,95.00
2017-08-07T00:06:36.884Z,95.00
2017-08-07T00:09:05.123Z,95.10
2017-08-07T00:11:32.630Z,95.00
2017-08-07T00:14:00.874Z,95.10
2017-08-07T00:16:28.368Z,95.10
2017-08-07T00:18:55.845Z,95.20
2017-08-07T00:21:23.321Z,96.00
2017-08-07T00:23:50.817Z,96.20
2017-08-07T00:26:18.320Z,96.60
2017-08-07T00:28:45.820Z,97.10
2017-08-07T00:31:13.297Z,96.80
2017-08-07T00:33:40.798Z,97.40
2017-08-07T00:36:08.275Z,97.50
2017-08-07T00:38:35.769Z,98.40
2017-08-07T00:41:03.261Z,98.50
2017-08-07T00:43:30.777Z,98.40
2017-08-07T00:45:58.248Z,99.00
2017-08-07T00:48:26.505Z,98.20
2017-08-07T00:50:54.013Z,98.30
2017-08-07T00:53:21.480Z,99.10
2017-08-07T00:55:49.007Z,98.80
2017-08-07T00:58:17.248Z,99.80
2017-08-07T01:00:44.745Z,99.60
2017-08-07T01:03:12.996Z,99.10
2017-08-07T01:05:40.492Z,99.10
2017-08-07T01:08:07.985Z,99.60
2017-08-07T01:10:35.477Z,99.60
2017-08-07T01:13:02.979Z,99.60
2017-08-07T01:15:30.450Z,99.90
2017-08-07T01:17:57.929Z,99.40
2017-08-07T01:20:25.420Z,99.90
2017-08-07T01:22:53.668Z,99.90
2017-08-07T01:25:21.161Z,99.90
2017-08-07T01:27:49.483Z,99.90
2017-08-07T01:30:16.962Z,99.90
2017-08-07T01:32:44.499Z,99.90
2017-08-07T01:35:11.981Z,99.90
2017-08-07T01:37:39.446Z,99.90
2017-08-07T01:40:06.939Z,99.90
2017-08-07T01:42:35.187Z,99.90
2017-08-07T01:45:02.691Z,99.90
2017-08-07T01:47:30.238Z,99.90
2017-08-07T01:49:57.721Z,99.90
2017-08-07T01:52:25.216Z,99.90
2017-08-07T01:54:52.692Z,99.90
2017-08-07T01:57:20.946Z,99.90
2017-08-07T01:59:48.428Z,99.90
2017-08-07T02:02:16.676Z,99.90
2017-08-07T02:04:44.178Z,99.90
2017-08-07T02:07:12.421Z,99.90
2017-08-07T02:09:39.917Z,99.90
2017-08-07T02:12:07.424Z,99.90
2017-08-07T02:14:34.905Z,99.90
2017-08-07T02:17:02.401Z,99.90
2017-08-07T02:19:29.876Z,99.90
2017-08-07T02:21:57.360Z,99.90
2017-08-07T02:24:24.860Z,99.90
2017-08-07T02:26:52.352Z,99.90
2017-08-07T02:29:19.844Z,99.90
2017-08-07T02:31:47.326Z,99.90
2017-08-07T02:34:15.647Z,99.90
2017-08-07T02:36:43.156Z,99.90
2017-08-07T02:39:11.402Z,99.90
2017-08-07T02:41:38.940Z,99.90
2017-08-07T02:44:06.441Z,99.90
2017-08-07T02:46:33.911Z,99.90
2017-08-07T02:49:02.170Z,99.90
2017-08-07T02:51:29.643Z,99.90
2017-08-07T02:53:57.891Z,99.90
2017-08-07T02:56:25.416Z,99.90
2017-08-07T02:58:52.893Z,99.90
2017-08-07T03:01:20.387Z,99.90
2017-08-07T03:03:47.869Z,99.90
2017-08-07T03:06:15.353Z,99.90
2017-08-07T03:08:42.885Z,99.90
2017-08-07T03:11:11.185Z,99.90
2017-08-07T03:13:38.661Z,99.90
2017-08-07T03:16:06.197Z,99.90
2017-08-07T03:18:33.677Z,99.90
2017-08-07T03:21:01.183Z,99.90
2017-08-07T03:23:29.461Z,99.90
2017-08-07T03:25:57.718Z,99.90
2017-08-07T03:28:25.192Z,99.90
2017-08-07T03:30:53.461Z,99.90
2017-08-07T03:33:21.712Z,99.90
2017-08-07T03:35:49.201Z,99.90
2017-08-07T03:38:17.449Z,99.90
2017-08-07T03:40:44.946Z,99.90
2017-08-07T03:43:13.185Z,99.90
2017-08-07T03:45:40.677Z,99.90
2017-08-07T03:48:08.991Z,99.90
2017-08-07T03:50:36.492Z,99.90
2017-08-07T03:53:03.960Z,99.90
2017-08-07T03:55:32.220Z,99.90
2017-08-07T03:57:59.691Z,99.90
2017-08-07T04:00:27.189Z,99.90
2017-08-07T04:02:54.660Z,99.90
2017-08-07T04:05:22.132Z,99.90
2017-08-07T04:07:49.624Z,99.90
2017-08-07T04:10:17.116Z,99.90
2017-08-07T04:12:44.609Z,99.90
2017-08-07T04:15:12.089Z,99.90
2017-08-07T04:17:39.593Z,99.90
2017-08-07T04:20:07.076Z,99.90
2017-08-07T04:22:34.552Z,99.90
2017-08-07T04:25:02.044Z,99.90
2017-08-07T04:27:30.280Z,99.90
2017-08-07T04:29:57.749Z,99.90
2017-08-07T04:32:25.241Z,99.90
2017-08-07T04:34:53.477Z,99.90
2017-08-07T04:37:21.010Z,99.90
2017-08-07T04:39:48.490Z,99.90
2017-08-07T04:42:15.964Z,99.90
2017-08-07T04:44:43.481Z,99.90
2017-08-07T04:47:10.952Z,99.90
2017-08-07T04:49:38.456Z,99.90
2017-08-07T04:52:06.715Z,99.90
2017-08-07T04:54:34.188Z,99.90
2017-08-07T04:57:02.458Z,99.90
2017-08-07T04:59:29.924Z,99.90
2017-08-07T05:01:58.169Z,99.90
2017-08-07T05:04:25.644Z,99.90
2017-08-07T05:06:53.128Z,99.90
2017-08-07T05:09:21.397Z,99.90
2017-08-07T05:11:49.636Z,99.90
2017-08-07T05:14:17.125Z,99.90
2017-08-07T05:16:45.401Z,99.90
2017-08-07T05:19:13.640Z,99.90
2017-08-07T05:21:41.109Z,99.90
2017-08-07T05:24:08.604Z,99.90
2017-08-07T05:26:36.840Z,99.90
2017-08-07T05:29:04.314Z,99.90
2017-08-07T05:31:31.828Z,99.90
2017-08-07T05:33:59.306Z,99.90
2017-08-07T05:36:26.817Z,99.90
2017-08-07T05:38:54.298Z,99.90
2017-08-07T05:41:21.808Z,99.90
2017-08-07T05:43:49.292Z,99.90
2017-08-07T05:46:16.782Z,99.90
2017-08-07T05:48:44.285Z,99.90
2017-08-07T05:51:12.528Z,99.90
2017-08-07T05:53:40.011Z,99.90
2017-08-07T05:56:07.491Z,99.90
2017-08-07T05:58:35.749Z,99.90
2017-08-07T06:01:03.232Z,99.90
2017-08-07T06:03:30.716Z,99.90
2017-08-07T06:05:58.210Z,99.90
2017-08-07T06:08:26.399Z,99.90
2017-08-07T06:10:54.867Z,99.90
2017-08-07T06:13:22.460Z,99.90
2017-08-07T06:15:51.695Z,99.90
2017-08-07T06:18:19.268Z,99.90
2017-08-07T06:20:48.566Z,99.90
2017-08-07T06:23:16.913Z,99.90
2017-08-07T06:25:45.819Z,99.20
2017-08-07T06:28:13.601Z,97.50
2017-08-07T06:30:41.998Z,95.60
2017-08-07T06:33:10.097Z,93.60
2017-08-07T06:35:39.760Z,91.60
2017-08-07T06:38:08.025Z,81.90
2017-08-07T06:40:35.505Z,80.90
2017-08-07T06:43:03.732Z,74.80
2017-08-07T06:45:31.216Z,74.60
2017-08-07T06:47:58.681Z,74.30
2017-08-07T06:50:26.195Z,68.00
2017-08-07T06:52:53.661Z,69.00
2017-08-07T06:55:21.137Z,67.00
2017-08-07T06:57:48.632Z,68.80
2017-08-07T07:00:16.879Z,65.00
2017-08-07T07:02:44.360Z,64.90
2017-08-07T07:05:12.601Z,64.20
2017-08-07T07:07:40.072Z,63.40
2017-08-07T07:10:07.566Z,62.10
2017-08-07T07:12:35.831Z,58.50
2017-08-07T07:15:04.068Z,58.50
2017-08-07T07:17:31.705Z,57.80
2017-08-07T07:19:59.169Z,55.80
2017-08-07T07:22:26.700Z,57.00
2017-08-07T07:24:54.198Z,59.00
2017-08-07T07:27:21.681Z,56.10
2017-08-07T07:29:49.152Z,54.50
2017-08-07T07:32:17.409Z,53.20
2017-08-07T07:34:44.885Z,53.00
2017-08-07T07:37:13.120Z,53.70
2017-08-07T07:39:40.669Z,53.40
2017-08-07T07:42:08.141Z,52.80
2017-08-07T07:44:35.633Z,52.70
2017-08-07T07:47:03.101Z,54.60
2017-08-07T07:49:31.376Z,55.00
2017-08-07T07:51:59.648Z,52.90
2017-08-07T07:54:27.118Z,52.90
2017-08-07T07:56:55.362Z,53.40
2017-08-07T07:59:22.853Z,53.40
2017-08-07T08:01:51.087Z,50.20
2017-08-07T08:04:18.558Z,50.10
2017-08-07T08:06:46.102Z,49.40
2017-08-07T08:09:13.589Z,48.70
2017-08-07T08:11:41.860Z,47.70
2017-08-07T08:14:09.329Z,47.70
2017-08-07T08:16:37.582Z,47.70
2017-08-07T08:19:05.064Z,47.50
2017-08-07T08:21:33.301Z,47.50
2017-08-07T08:24:00.783Z,47.50
2017-08-07T08:26:28.296Z,45.60
2017-08-07T08:28:55.779Z,46.10
2017-08-07T08:31:23.272Z,46.30
2017-08-07T08:33:51.539Z,47.50
2017-08-07T08:36:19.021Z,46.70
2017-08-07T08:38:46.505Z,47.00
2017-08-07T08:41:14.016Z,49.70
2017-08-07T08:43:42.256Z,47.50
2017-08-07T08:46:09.743Z,46.70
2017-08-07T08:48:37.228Z,50.00
2017-08-07T08:51:04.700Z,47.80
2017-08-07T08:53:32.192Z,45.30
2017-08-07T08:55:59.692Z,44.70
2017-08-07T08:58:27.922Z,45.70
2017-08-07T09:00:55.408Z,45.60
2017-08-07T09:03:22.892Z,47.00
2017-08-07T09:05:51.131Z,48.40
2017-08-07T09:08:18.605Z,48.30
2017-08-07T09:10:46.092Z,49.20
2017-08-07T09:13:13.556Z,51.90
2017-08-07T09:15:41.054Z,46.80
2017-08-07T09:18:08.532Z,46.60
2017-08-07T09:20:36.009Z,42.90
2017-08-07T09:23:04.277Z,39.40
2017-08-07T09:25:32.509Z,40.30
2017-08-07T09:27:59.997Z,40.30
2017-08-07T09:30:27.492Z,41.90
2017-08-07T09:32:54.956Z,42.40
2017-08-07T09:35:22.437Z,39.10
2017-08-07T09:37:49.922Z,40.20
2017-08-07T09:40:17.401Z,39.60
2017-08-07T09:42:45.650Z,42.90
2017-08-07T09:45:13.144Z,42.80
2017-08-07T09:47:41.410Z,37.90
2017-08-07T09:50:08.901Z,37.80
2017-08-07T09:52:36.380Z,39.60
2017-08-07T09:55:03.858Z,43.60
2017-08-07T09:57:31.332Z,47.20
2017-08-07T09:59:58.819Z,46.70
2017-08-07T10:02:26.292Z,43.40
2017-08-07T10:04:53.764Z,39.80
2017-08-07T10:07:21.320Z,39.10
2017-08-07T10:09:48.784Z,37.70
2017-08-07T10:12:16.301Z,38.50
2017-08-07T10:14:44.532Z,37.50
2017-08-07T10:17:12.044Z,37.00
2017-08-07T10:19:40.301Z,32.80
2017-08-07T10:22:07.771Z,32.70
2017-08-07T10:24:36.024Z,30.20
2017-08-07T10:27:03.517Z,30.20
2017-08-07T10:29:30.989Z,31.60
2017-08-07T10:31:58.479Z,30.50
2017-08-07T10:34:25.958Z,30.80
2017-08-07T10:36:53.432Z,32.30
2017-08-07T10:39:21.750Z,30.50
2017-08-07T10:41:49.232Z,30.50
2017-08-07T10:44:16.735Z,30.50
2017-08-07T10:46:44.988Z,30.80
2017-08-07T10:49:12.456Z,30.70
2017-08-07T10:51:40.710Z,33.40
2017-08-07T10:54:08.203Z,33.30
2017-08-07T10:56:36.462Z,32.00
2017-08-07T10:59:03.949Z,31.90
2017-08-07T11:01:31.435Z,31.10
2017-08-07T11:03:58.927Z,29.80
2017-08-07T11:06:26.415Z,28.40
2017-08-07T11:08:54.669Z,33.30
2017-08-07T11:11:22.196Z,33.30
2017-08-07T11:13:49.668Z,34.80
2017-08-07T11:16:17.177Z,35.90
2017-08-07T11:18:44.676Z,38.00
2017-08-07T11:21:12.213Z,36.60
2017-08-07T11:23:39.700Z,36.00
2017-08-07T11:26:07.348Z,39.40
2017-08-07T11:28:34.826Z,41.90
2017-08-07T11:31:02.310Z,38.90
2017-08-07T11:33:30.551Z,40.30
2017-08-07T11:35:58.046Z,40.10
2017-08-07T11:38:26.282Z,42.30
2017-08-07T11:40:53.804Z,42.10
2017-08-07T11:43:21.290Z,41.40
2017-08-07T11:45:48.785Z,42.60
2017-08-07T11:48:16.273Z,42.50
2017-08-07T11:50:43.757Z,41.50
2017-08-07T11:53:11.277Z,43.30
2017-08-07T11:55:38.792Z,41.40
2017-08-07T11:58:06.263Z,41.20
2017-08-07T12:00:33.877Z,42.90
2017-08-07T12:03:01.361Z,44.50
2017-08-07T12:05:28.829Z,41.10
2017-08-07T12:07:56.370Z,41.30
2017-08-07T12:10:23.868Z,38.80
2017-08-07T12:12:51.389Z,42.00
2017-08-07T12:15:18.852Z,40.40
2017-08-07T12:17:46.396Z,42.50
2017-08-07T12:20:13.885Z,43.20
2017-08-07T12:22:41.388Z,40.50
2017-08-07T12:25:09.647Z,42.70
2017-08-07T12:27:37.885Z,41.60
2017-08-07T12:30:05.353Z,41.50
2017-08-07T12:32:32.840Z,42.30
2017-08-07T12:35:01.072Z,43.00
2017-08-07T12:37:28.561Z,42.90
2017-08-07T12:39:56.057Z,43.50
2017-08-07T12:42:23.533Z,42.50
2017-08-07T12:44:51.000Z,42.50
2017-08-07T12:47:18.504Z,45.80
2017-08-07T12:49:46.736Z,44.10
2017-08-07T12:52:14.228Z,43.80
2017-08-07T12:54:41.741Z,43.40
2017-08-07T12:57:09.224Z,44.00
2017-08-07T12:59:36.758Z,42.80
2017-08-07T13:02:04.228Z,42.60
2017-08-07T13:04:31.774Z,42.00
2017-08-07T13:06:59.245Z,41.20
2017-08-07T13:09:26.800Z,44.00
2017-08-07T13:11:54.301Z,43.40
2017-08-07T13:14:21.777Z,43.70
2017-08-07T13:16:50.033Z,42.20
2017-08-07T13:19:17.503Z,42.10
2017-08-07T13:21:44.990Z,44.50
2017-08-07T13:24:12.489Z,46.10
2017-08-07T13:26:39.966Z,43.30
2017-08-07T13:29:07.453Z,44.20
2017-08-07T13:31:34.928Z,43.40
2017-08-07T13:34:02.400Z,44.30
2017-08-07T13:36:29.893Z,44.10
2017-08-07T13:38:57.364Z,44.00
2017-08-07T13:41:25.620Z,44.30
2017-08-07T13:43:53.093Z,44.20
2017-08-07T13:46:20.585Z,44.30
2017-08-07T13:48:48.061Z,44.30
2017-08-07T13:51:15.549Z,43.60
2017-08-07T13:53:43.076Z,42.00
2017-08-07T13:56:10.541Z,42.90
2017-08-07T13:58:38.037Z,42.10
2017-08-07T14:01:05.508Z,41.90
2017-08-07T14:03:33.771Z,41.80
2017-08-07T14:06:01.252Z,41.60
2017-08-07T14:08:29.578Z,44.50
2017-08-07T14:10:57.061Z,44.50
2017-08-07T14:13:24.580Z,43.50
2017-08-07T14:15:52.072Z,44.10
2017-08-07T14:18:19.547Z,44.60
2017-08-07T14:20:47.784Z,44.60
2017-08-07T14:23:15.273Z,43.90
2017-08-07T14:25:42.754Z,44.90
2017-08-07T14:28:10.996Z,45.10
2017-08-07T14:30:38.486Z,45.10
2017-08-07T14:33:06.724Z,42.80
2017-08-07T14:35:34.219Z,42.80
2017-08-07T14:38:02.466Z,45.20
2017-08-07T14:40:29.952Z,45.10
2017-08-07T14:42:58.197Z,44.70
2017-08-07T14:45:25.684Z,44.60
2017-08-07T14:47:53.957Z,45.10
2017-08-07T14:50:22.232Z,45.90
2017-08-07T14:52:49.704Z,45.90
2017-08-07T14:55:17.948Z,44.70
2017-08-07T14:57:45.428Z,44.70
2017-08-07T15:00:13.697Z,46.80
2017-08-07T15:02:41.164Z,46.00
2017-08-07T15:05:09.410Z,44.00
2017-08-07T15:07:37.003Z,43.90
2017-08-07T15:10:05.247Z,44.90
2017-08-07T15:12:32.747Z,44.90
2017-08-07T15:15:00.996Z,45.90
2017-08-07T15:17:28.472Z,45.80
2017-08-07T15:19:56.786Z,46.70
2017-08-07T15:22:24.277Z,46.70
2017-08-07T15:24:51.785Z,47.40
2017-08-07T15:27:19.261Z,46.50
2017-08-07T15:29:46.830Z,46.70
2017-08-07T15:32:14.325Z,46.70
2017-08-07T15:34:41.788Z,46.60
2017-08-07T15:37:09.264Z,47.20
2017-08-07T15:39:37.523Z,47.70
2017-08-07T15:42:04.997Z,47.70
2017-08-07T15:44:33.252Z,47.60
2017-08-07T15:47:00.716Z,47.50
2017-08-07T15:49:28.979Z,47.90
2017-08-07T15:51:56.468Z,47.30
2017-08-07T15:54:24.741Z,47.10
2017-08-07T15:56:52.984Z,47.80
2017-08-07T15:59:20.464Z,47.70
2017-08-07T16:01:48.009Z,48.60
2017-08-07T16:04:15.477Z,50.60
2017-08-07T16:06:42.965Z,48.10
2017-08-07T16:09:10.427Z,48.70
2017-08-07T16:11:37.905Z,48.70
2017-08-07T16:14:05.388Z,47.60
2017-08-07T16:16:32.878Z,48.90
2017-08-07T16:19:01.137Z,48.60
2017-08-07T16:21:28.613Z,48.60
2017-08-07T16:23:57.668Z,49.10
2017-08-07T16:26:25.156Z,49.00
2017-08-07T16:28:53.397Z,50.40
2017-08-07T16:31:20.905Z,50.40
2017-08-07T16:33:49.152Z,49.40
2017-08-07T16:36:16.672Z,49.30
2017-08-07T16:38:44.167Z,50.60
2017-08-07T16:41:11.644Z,49.10
2017-08-07T16:43:39.889Z,50.20
2017-08-07T16:46:07.392Z,50.20
2017-08-07T16:48:35.700Z,50.00
2017-08-07T16:51:03.200Z,49.90
2017-08-07T16:53:30.729Z,49.70
2017-08-07T16:55:58.246Z,49.60
2017-08-07T16:58:26.499Z,51.10
2017-08-07T17:00:53.985Z,50.90
2017-08-07T17:03:21.498Z,50.50
2017-08-07T17:05:48.961Z,51.00
2017-08-07T17:08:16.446Z,50.80
2017-08-07T17:10:44.699Z,51.80
2017-08-07T17:13:12.214Z,51.80
2017-08-07T17:15:39.677Z,52.40
2017-08-07T17:18:07.157Z,52.60
2017-08-07T17:20:34.641Z,53.00
2017-08-07T17:23:02.121Z,52.30
2017-08-07T17:25:29.608Z,52.60
2017-08-07T17:27:57.112Z,54.00
2017-08-07T17:30:24.588Z,52.90
2017-08-07T17:32:52.094Z,53.40
2017-08-07T17:35:20.353Z,53.80
2017-08-07T17:37:47.868Z,54.00
2017-08-07T17:40:16.125Z,53.90
2017-08-07T17:42:44.375Z,54.80
2017-08-07T17:45:11.888Z,54.70
2017-08-07T17:47:39.386Z,55.90
2017-08-07T17:50:07.019Z,57.00
2017-08-07T17:52:34.485Z,56.60
2017-08-07T17:55:02.021Z,55.90
2017-08-07T17:57:29.517Z,57.10
2017-08-07T17:59:57.038Z,57.30
2017-08-07T18:02:24.521Z,57.00
2017-08-07T18:04:52.057Z,56.80
2017-08-07T18:07:19.556Z,57.20
2017-08-07T18:09:47.045Z,58.00
2017-08-07T18:12:15.277Z,59.30
2017-08-07T18:14:42.809Z,59.20
2017-08-07T18:17:10.281Z,58.90
2017-08-07T18:19:37.829Z,58.80
2017-08-07T18:22:05.320Z,59.40
2017-08-07T18:24:32.837Z,59.90
2017-08-07T18:27:00.398Z,60.30
2017-08-07T18:29:27.963Z,60.00
2017-08-07T18:31:55.471Z,61.10
2017-08-07T18:34:22.954Z,60.20
2017-08-07T18:36:50.441Z,60.90
2017-08-07T18:39:17.949Z,61.20
2017-08-07T18:41:45.440Z,62.00
2017-08-07T18:44:12.964Z,62.40
2017-08-07T18:46:40.440Z,63.00
2017-08-07T18:49:08.714Z,62.80
2017-08-07T18:51:37.073Z,64.10
2017-08-07T18:54:04.549Z,63.30
2017-08-07T18:56:32.802Z,64.90
2017-08-07T18:59:00.276Z,64.70
2017-08-07T19:01:31.510Z,64.90
2017-08-07T19:03:58.992Z,65.40
2017-08-07T19:06:27.239Z,66.30
2017-08-07T19:08:54.756Z,66.30
2017-08-07T19:11:22.223Z,66.60
2017-08-07T19:13:49.719Z,66.70
2017-08-07T19:16:17.216Z,66.60
2017-08-07T19:18:44.720Z,67.10
2017-08-07T19:21:12.224Z,66.80
2017-08-07T19:23:39.707Z,67.40
2017-08-07T19:26:07.221Z,67.60
2017-08-07T19:28:34.698Z,68.20
2017-08-07T19:31:02.939Z,68.80
2017-08-07T19:33:30.450Z,68.70
2017-08-07T19:35:57.950Z,68.50
2017-08-07T19:38:25.450Z,68.60
2017-08-07T19:40:52.942Z,69.30
2017-08-07T19:43:20.446Z,69.00
2017-08-07T19:45:48.055Z,69.50
2017-08-07T19:48:15.548Z,69.90
2017-08-07T19:50:43.057Z,70.00
2017-08-07T19:53:10.535Z,70.40
2017-08-07T19:55:38.092Z,70.20
2017-08-07T19:58:05.564Z,70.40
2017-08-07T20:00:33.071Z,70.90
2017-08-07T20:03:01.321Z,70.90
2017-08-07T20:05:28.810Z,70.10
2017-08-07T20:07:57.111Z,70.20
2017-08-07T20:10:24.620Z,70.20
2017-08-07T20:12:52.139Z,70.70
2017-08-07T20:15:19.634Z,70.60
2017-08-07T20:17:47.123Z,70.60
2017-08-07T20:20:15.375Z,71.20
2017-08-07T20:22:42.865Z,71.10
2017-08-07T20:25:10.352Z,71.60
2017-08-07T20:27:37.834Z,71.80
2017-08-07T20:30:05.332Z,71.80
2017-08-07T20:32:32.837Z,71.90
2017-08-07T20:35:00.315Z,72.40
2017-08-07T20:37:27.829Z,72.90
2017-08-07T20:39:55.309Z,72.70
2017-08-07T20:42:22.790Z,72.70
2017-08-07T20:44:50.284Z,72.80
2017-08-07T20:47:17.778Z,73.20
2017-08-07T20:49:45.267Z,73.20
2017-08-07T20:52:12.790Z,73.40
2017-08-07T20:54:40.275Z,73.80
2017-08-07T20:57:07.761Z,73.70
2017-08-07T20:59:36.025Z,74.00
2017-08-07T21:02:03.510Z,74.70
2017-08-07T21:04:31.012Z,74.40
2017-08-07T21:06:58.502Z,74.50
2017-08-07T21:09:26.018Z,75.10
2017-08-07T21:11:53.480Z,77.40
2017-08-07T21:14:20.954Z,76.30
2017-08-07T21:16:48.484Z,75.90
2017-08-07T21:19:15.962Z,77.00
2017-08-07T21:21:43.471Z,77.90
2017-08-07T21:24:11.716Z,78.40
2017-08-07T21:26:39.221Z,78.20
2017-08-07T21:29:06.709Z,79.00
2017-08-07T21:31:34.168Z,80.40
2017-08-07T21:34:01.721Z,80.80
2017-08-07T21:36:29.201Z,80.00
2017-08-07T21:38:56.701Z,80.50
2017-08-07T21:41:24.957Z,79.80
2017-08-07T21:43:52.436Z,79.80
2017-08-07T21:46:20.703Z,79.80
2017-08-07T21:48:48.945Z,79.80
2017-08-07T21:51:16.449Z,79.70
2017-08-07T21:53:43.926Z,79.80
2017-08-07T21:56:11.444Z,79.90
2017-08-07T21:58:38.926Z,79.70
2017-08-07T22:01:06.401Z,79.60
2017-08-07T22:03:34.781Z,79.70
2017-08-07T22:06:02.275Z,80.60
2017-08-07T22:08:29.757Z,79.90
2017-08-07T22:10:58.014Z,79.50
2017-08-07T22:13:25.556Z,79.40
2017-08-07T22:15:53.062Z,79.60
2017-08-07T22:18:20.567Z,79.10
2017-08-07T22:20:48.048Z,78.70
2017-08-07T22:23:15.520Z,78.50
2017-08-07T22:25:43.022Z,78.50
2017-08-07T22:28:10.488Z,79.20
2017-08-07T22:30:37.969Z,78.80
2017-08-07T22:33:05.469Z,78.70
2017-08-07T22:35:33.713Z,78.90
2017-08-07T22:38:01.201Z,78.90
2017-08-07T22:40:28.715Z,79.00
2017-08-07T22:42:56.176Z,78.80
2017-08-07T22:45:23.722Z,79.50
2017-08-07T22:47:51.194Z,79.60
2017-08-07T22:50:18.698Z,79.30
2017-08-07T22:52:47.214Z,79.60
2017-08-07T22:55:14.690Z,79.60
2017-08-07T22:57:42.231Z,79.70
2017-08-07T23:00:09.704Z,80.00
2017-08-07T23:02:37.209Z,80.30
2017-08-07T23:05:04.708Z,79.70
2017-08-07T23:07:32.194Z,79.30
2017-08-07T23:09:59.685Z,79.50
2017-08-07T23:12:27.178Z,79.70
2017-08-07T23:14:54.686Z,80.00
2017-08-07T23:17:22.197Z,82.90
2017-08-07T23:19:49.693Z,80.90
2017-08-07T23:22:17.185Z,81.40
2017-08-07T23:24:44.661Z,84.50
2017-08-07T23:27:12.145Z,85.20
2017-08-07T23:29:39.637Z,85.60
2017-08-07T23:32:07.147Z,86.50
2017-08-07T23:34:34.639Z,87.50
2017-08-07T23:37:02.118Z,89.10
2017-08-07T23:39:30.380Z,89.70
2017-08-07T23:41:57.865Z,89.60
2017-08-07T23:44:25.360Z,90.90
2017-08-07T23:46:52.884Z,90.40
2017-08-07T23:49:20.379Z,92.50
2017-08-07T23:51:47.868Z,92.40
2017-08-07T23:54:15.410Z,93.40
2017-08-07T23:56:42.887Z,94.00
2017-08-07T23:59:10.377Z,94.60
